sensor_id;sensor_type;location;lat;lon;timestamp;pressure;altitude;pressure_sealevel;temperature;humidity
75594;BME280;64176;49.156;7.810;2023-07-20T00:02:08;99065.13;;;16.12;65.02
75594;BME280;64176;49.156;7.810;2023-07-20T00:04:56;99064.31;;;16.10;65.20
75594;BME280;64176;49.156;7.810;2023-07-20T00:07:40;99069.78;;;15.96;65.63
75594;BME280;64176;49.156;7.810;2023-07-20T00:10:24;99071.94;;;15.73;66.21
75594;BME280;64176;49.156;7.810;2023-07-20T00:13:09;99065.16;;;15.64;66.50
75594;BME280;64176;49.156;7.810;2023-07-20T00:15:53;99066.97;;;16.07;65.69
75594;BME280;64176;49.156;7.810;2023-07-20T00:18:40;99064.56;;;15.96;65.51
75594;BME280;64176;49.156;7.810;2023-07-20T00:21:24;99072.09;;;15.65;67.00
75594;BME280;64176;49.156;7.810;2023-07-20T00:24:08;99075.81;;;15.49;67.80
75594;BME280;64176;49.156;7.810;2023-07-20T00:26:52;99069.50;;;15.65;67.50
75594;BME280;64176;49.156;7.810;2023-07-20T00:29:38;99069.69;;;15.51;68.03
75594;BME280;64176;49.156;7.810;2023-07-20T00:32:30;99069.19;;;15.80;67.13
75594;BME280;64176;49.156;7.810;2023-07-20T00:35:16;99070.22;;;15.73;67.00
75594;BME280;64176;49.156;7.810;2023-07-20T00:38:00;99061.22;;;15.40;68.12
75594;BME280;64176;49.156;7.810;2023-07-20T00:40:47;99065.84;;;15.23;68.65
75594;BME280;64176;49.156;7.810;2023-07-20T00:43:35;99065.94;;;15.69;67.51
75594;BME280;64176;49.156;7.810;2023-07-20T00:46:22;99057.84;;;15.35;68.05
75594;BME280;64176;49.156;7.810;2023-07-20T00:49:07;99064.41;;;15.04;69.23
75594;BME280;64176;49.156;7.810;2023-07-20T00:51:51;99058.97;;;15.19;69.26
75594;BME280;64176;49.156;7.810;2023-07-20T00:54:37;99056.94;;;15.36;68.35
75594;BME280;64176;49.156;7.810;2023-07-20T00:57:25;99049.50;;;15.13;68.95
75594;BME280;64176;49.156;7.810;2023-07-20T01:00:10;99066.91;;;15.11;69.46
75594;BME280;64176;49.156;7.810;2023-07-20T01:02:56;99053.78;;;15.17;68.97
75594;BME280;64176;49.156;7.810;2023-07-20T01:05:42;99065.00;;;15.21;69.58
75594;BME280;64176;49.156;7.810;2023-07-20T01:08:35;99067.16;;;14.94;70.05
75594;BME280;64176;49.156;7.810;2023-07-20T01:11:35;99069.69;;;14.99;70.09
75594;BME280;64176;49.156;7.810;2023-07-20T01:14:23;99064.31;;;15.11;69.65
75594;BME280;64176;49.156;7.810;2023-07-20T01:17:10;99065.81;;;15.24;69.33
75594;BME280;64176;49.156;7.810;2023-07-20T01:19:59;99065.09;;;15.15;69.55
75594;BME280;64176;49.156;7.810;2023-07-20T01:28:57;99059.28;;;14.99;70.15
75594;BME280;64176;49.156;7.810;2023-07-20T01:31:47;99055.63;;;15.11;69.57
75594;BME280;64176;49.156;7.810;2023-07-20T01:34:35;99046.50;;;14.84;70.31
75594;BME280;64176;49.156;7.810;2023-07-20T01:37:21;99063.56;;;14.39;72.59
75594;BME280;64176;49.156;7.810;2023-07-20T01:40:13;99066.16;;;14.43;72.12
75594;BME280;64176;49.156;7.810;2023-07-20T01:42:58;99065.31;;;14.38;72.53
75594;BME280;64176;49.156;7.810;2023-07-20T01:45:42;99060.13;;;14.40;73.04
75594;BME280;64176;49.156;7.810;2023-07-20T01:48:31;99056.75;;;14.32;72.35
75594;BME280;64176;49.156;7.810;2023-07-20T01:51:19;99049.53;;;14.56;72.16
75594;BME280;64176;49.156;7.810;2023-07-20T01:54:06;99055.28;;;14.11;73.77
75594;BME280;64176;49.156;7.810;2023-07-20T01:56:50;99043.47;;;14.54;72.58
75594;BME280;64176;49.156;7.810;2023-07-20T01:59:33;99040.63;;;14.71;71.55
75594;BME280;64176;49.156;7.810;2023-07-20T02:02:18;99046.69;;;14.72;71.27
75594;BME280;64176;49.156;7.810;2023-07-20T02:05:03;99046.19;;;14.47;72.01
75594;BME280;64176;49.156;7.810;2023-07-20T02:07:50;99052.06;;;13.91;74.67
75594;BME280;64176;49.156;7.810;2023-07-20T02:10:39;99056.84;;;14.24;73.46
75594;BME280;64176;49.156;7.810;2023-07-20T02:13:23;99060.09;;;14.43;72.76
75594;BME280;64176;49.156;7.810;2023-07-20T02:16:08;99045.75;;;14.10;74.38
75594;BME280;64176;49.156;7.810;2023-07-20T02:18:54;99047.84;;;14.52;72.76
75594;BME280;64176;49.156;7.810;2023-07-20T02:21:40;99050.34;;;14.58;72.00
75594;BME280;64176;49.156;7.810;2023-07-20T02:24:27;99051.31;;;14.50;72.65
75594;BME280;64176;49.156;7.810;2023-07-20T02:27:11;99050.59;;;14.40;72.72
75594;BME280;64176;49.156;7.810;2023-07-20T02:29:55;99054.78;;;14.52;72.42
75594;BME280;64176;49.156;7.810;2023-07-20T02:32:41;99054.94;;;14.40;72.67
75594;BME280;64176;49.156;7.810;2023-07-20T02:35:29;99055.00;;;14.34;73.12
75594;BME280;64176;49.156;7.810;2023-07-20T02:38:13;99057.50;;;14.43;72.66
75594;BME280;64176;49.156;7.810;2023-07-20T02:40:57;99066.19;;;14.37;72.66
75594;BME280;64176;49.156;7.810;2023-07-20T02:43:43;99068.13;;;14.23;73.12
75594;BME280;64176;49.156;7.810;2023-07-20T02:46:27;99059.53;;;14.16;73.52
75594;BME280;64176;49.156;7.810;2023-07-20T02:49:13;99078.03;;;13.89;74.66
75594;BME280;64176;49.156;7.810;2023-07-20T02:52:00;99075.03;;;13.41;76.86
75594;BME280;64176;49.156;7.810;2023-07-20T02:54:44;99068.97;;;13.42;77.02
75594;BME280;64176;49.156;7.810;2023-07-20T02:57:30;99048.03;;;13.61;76.00
75594;BME280;64176;49.156;7.810;2023-07-20T03:00:17;99066.50;;;13.30;77.57
75594;BME280;64176;49.156;7.810;2023-07-20T03:03:05;99066.09;;;13.71;76.02
75594;BME280;64176;49.156;7.810;2023-07-20T03:05:53;99062.56;;;13.80;75.40
75594;BME280;64176;49.156;7.810;2023-07-20T03:08:40;99068.56;;;13.83;74.91
75594;BME280;64176;49.156;7.810;2023-07-20T03:11:25;99064.38;;;13.70;76.07
75594;BME280;64176;49.156;7.810;2023-07-20T03:14:12;99072.00;;;13.87;75.38
75594;BME280;64176;49.156;7.810;2023-07-20T03:16:59;99069.66;;;13.60;76.33
75594;BME280;64176;49.156;7.810;2023-07-20T03:19:46;99070.09;;;13.14;77.94
75594;BME280;64176;49.156;7.810;2023-07-20T03:22:30;99069.97;;;13.28;77.49
75594;BME280;64176;49.156;7.810;2023-07-20T03:25:14;99067.25;;;13.43;76.99
75594;BME280;64176;49.156;7.810;2023-07-20T03:27:58;99068.84;;;13.58;76.56
75594;BME280;64176;49.156;7.810;2023-07-20T03:30:47;99072.16;;;13.70;75.96
75594;BME280;64176;49.156;7.810;2023-07-20T03:33:36;99066.50;;;13.27;77.68
75594;BME280;64176;49.156;7.810;2023-07-20T03:36:23;99071.69;;;13.29;77.44
75594;BME280;64176;49.156;7.810;2023-07-20T03:39:09;99066.47;;;13.35;77.34
75594;BME280;64176;49.156;7.810;2023-07-20T03:41:58;99078.38;;;13.56;76.32
75594;BME280;64176;49.156;7.810;2023-07-20T03:44:44;99084.31;;;13.68;75.71
75594;BME280;64176;49.156;7.810;2023-07-20T03:47:28;99081.22;;;13.27;77.63
75594;BME280;64176;49.156;7.810;2023-07-20T03:50:15;99080.47;;;13.09;78.48
75594;BME280;64176;49.156;7.810;2023-07-20T03:52:59;99076.94;;;13.24;77.67
75594;BME280;64176;49.156;7.810;2023-07-20T03:55:47;99091.72;;;13.08;78.45
75594;BME280;64176;49.156;7.810;2023-07-20T03:58:32;99070.03;;;13.19;77.69
75594;BME280;64176;49.156;7.810;2023-07-20T04:01:16;99086.31;;;13.40;77.22
75594;BME280;64176;49.156;7.810;2023-07-20T04:04:00;99085.44;;;13.37;77.23
75594;BME280;64176;49.156;7.810;2023-07-20T04:06:45;99089.13;;;13.10;78.80
75594;BME280;64176;49.156;7.810;2023-07-20T04:09:31;99081.25;;;13.24;78.29
75594;BME280;64176;49.156;7.810;2023-07-20T04:12:15;99090.81;;;13.19;78.03
75594;BME280;64176;49.156;7.810;2023-07-20T04:14:59;99088.28;;;13.05;78.80
75594;BME280;64176;49.156;7.810;2023-07-20T04:17:45;99088.19;;;13.25;77.74
75594;BME280;64176;49.156;7.810;2023-07-20T04:20:29;99089.84;;;13.32;77.34
75594;BME280;64176;49.156;7.810;2023-07-20T04:23:13;99100.22;;;13.32;77.53
75594;BME280;64176;49.156;7.810;2023-07-20T04:26:00;99083.72;;;13.37;76.90
75594;BME280;64176;49.156;7.810;2023-07-20T04:28:46;99093.38;;;13.23;77.88
75594;BME280;64176;49.156;7.810;2023-07-20T04:31:39;99092.50;;;13.24;77.65
75594;BME280;64176;49.156;7.810;2023-07-20T04:34:23;99091.69;;;13.18;77.75
75594;BME280;64176;49.156;7.810;2023-07-20T04:37:10;99094.16;;;13.31;77.44
75594;BME280;64176;49.156;7.810;2023-07-20T04:39:56;99086.47;;;13.22;77.72
75594;BME280;64176;49.156;7.810;2023-07-20T04:42:41;99088.13;;;13.29;77.49
75594;BME280;64176;49.156;7.810;2023-07-20T04:45:25;99092.34;;;13.44;77.08
75594;BME280;64176;49.156;7.810;2023-07-20T04:48:13;99090.50;;;13.54;76.82
75594;BME280;64176;49.156;7.810;2023-07-20T04:51:02;99067.59;;;12.93;78.69
75594;BME280;64176;49.156;7.810;2023-07-20T04:53:49;99096.13;;;12.96;79.36
75594;BME280;64176;49.156;7.810;2023-07-20T04:56:34;99101.44;;;12.76;80.15
75594;BME280;64176;49.156;7.810;2023-07-20T04:59:22;99092.69;;;12.94;79.52
75594;BME280;64176;49.156;7.810;2023-07-20T05:02:06;99089.00;;;13.30;78.69
75594;BME280;64176;49.156;7.810;2023-07-20T05:04:53;99086.31;;;13.40;78.15
75594;BME280;64176;49.156;7.810;2023-07-20T05:07:37;99087.25;;;13.30;78.49
75594;BME280;64176;49.156;7.810;2023-07-20T05:10:24;99087.06;;;13.53;77.30
75594;BME280;64176;49.156;7.810;2023-07-20T05:13:11;99075.59;;;13.74;76.34
75594;BME280;64176;49.156;7.810;2023-07-20T05:15:55;99077.22;;;13.85;75.81
75594;BME280;64176;49.156;7.810;2023-07-20T05:18:39;99089.31;;;13.90;75.63
75594;BME280;64176;49.156;7.810;2023-07-20T05:21:27;99090.16;;;13.92;76.04
75594;BME280;64176;49.156;7.810;2023-07-20T05:24:14;99083.88;;;14.11;75.50
75594;BME280;64176;49.156;7.810;2023-07-20T05:27:00;99078.53;;;14.21;75.05
75594;BME280;64176;49.156;7.810;2023-07-20T05:29:47;99075.09;;;14.18;75.86
75594;BME280;64176;49.156;7.810;2023-07-20T05:32:31;99071.34;;;14.45;74.46
75594;BME280;64176;49.156;7.810;2023-07-20T05:35:15;99067.56;;;14.69;73.64
75594;BME280;64176;49.156;7.810;2023-07-20T05:38:00;99074.28;;;14.82;73.53
75594;BME280;64176;49.156;7.810;2023-07-20T05:40:45;99074.13;;;14.92;73.25
75594;BME280;64176;49.156;7.810;2023-07-20T05:43:29;99079.13;;;15.06;72.49
75594;BME280;64176;49.156;7.810;2023-07-20T05:46:16;99071.09;;;15.21;71.84
75594;BME280;64176;49.156;7.810;2023-07-20T05:49:02;99073.22;;;15.49;71.14
75594;BME280;64176;49.156;7.810;2023-07-20T05:51:49;99079.22;;;15.52;71.13
75594;BME280;64176;49.156;7.810;2023-07-20T05:54:33;99087.03;;;15.54;70.70
75594;BME280;64176;49.156;7.810;2023-07-20T05:57:24;99084.59;;;15.92;69.73
75594;BME280;64176;49.156;7.810;2023-07-20T06:00:09;99090.69;;;15.91;69.56
75594;BME280;64176;49.156;7.810;2023-07-20T06:02:59;99081.78;;;16.03;68.83
75594;BME280;64176;49.156;7.810;2023-07-20T06:05:48;99082.06;;;16.34;67.68
75594;BME280;64176;49.156;7.810;2023-07-20T06:08:35;99079.03;;;16.54;67.77
75594;BME280;64176;49.156;7.810;2023-07-20T06:11:19;99079.19;;;16.88;67.35
75594;BME280;64176;49.156;7.810;2023-07-20T06:14:04;99085.63;;;17.10;66.33
75594;BME280;64176;49.156;7.810;2023-07-20T06:16:48;99078.00;;;17.36;65.33
75594;BME280;64176;49.156;7.810;2023-07-20T06:19:35;99084.25;;;17.66;64.68
75594;BME280;64176;49.156;7.810;2023-07-20T06:22:18;99077.75;;;17.81;64.22
75594;BME280;64176;49.156;7.810;2023-07-20T06:25:03;99073.22;;;17.88;63.88
75594;BME280;64176;49.156;7.810;2023-07-20T06:27:49;99076.94;;;18.11;63.18
75594;BME280;64176;49.156;7.810;2023-07-20T06:30:34;99080.94;;;18.23;62.37
75594;BME280;64176;49.156;7.810;2023-07-20T06:33:21;99068.63;;;18.27;62.67
75594;BME280;64176;49.156;7.810;2023-07-20T06:36:05;99071.38;;;19.10;60.73
75594;BME280;64176;49.156;7.810;2023-07-20T06:38:48;99060.50;;;21.35;53.76
75594;BME280;64176;49.156;7.810;2023-07-20T06:41:32;99060.56;;;21.34;53.81
75594;BME280;64176;49.156;7.810;2023-07-20T06:44:19;99060.56;;;21.12;53.98
75594;BME280;64176;49.156;7.810;2023-07-20T06:47:03;99064.56;;;21.64;52.32
75594;BME280;64176;49.156;7.810;2023-07-20T06:49:49;99054.09;;;22.80;49.44
75594;BME280;64176;49.156;7.810;2023-07-20T06:52:33;99040.47;;;23.08;48.44
75594;BME280;64176;49.156;7.810;2023-07-20T06:55:17;99060.09;;;22.07;50.78
75594;BME280;64176;49.156;7.810;2023-07-20T06:58:04;99045.44;;;23.31;48.00
75594;BME280;64176;49.156;7.810;2023-07-20T07:00:49;99050.50;;;23.36;47.28
75594;BME280;64176;49.156;7.810;2023-07-20T07:03:33;99044.28;;;23.37;47.47
75594;BME280;64176;49.156;7.810;2023-07-20T07:06:20;99043.41;;;24.22;45.26
75594;BME280;64176;49.156;7.810;2023-07-20T07:09:06;99046.72;;;23.93;45.56
75594;BME280;64176;49.156;7.810;2023-07-20T07:11:51;99039.56;;;24.92;43.24
75594;BME280;64176;49.156;7.810;2023-07-20T07:14:39;99057.31;;;21.90;49.04
75594;BME280;64176;49.156;7.810;2023-07-20T07:17:24;99047.44;;;23.09;46.27
75594;BME280;64176;49.156;7.810;2023-07-20T07:20:08;99040.91;;;23.69;44.87
75594;BME280;64176;49.156;7.810;2023-07-20T07:22:55;99042.84;;;22.39;48.07
75594;BME280;64176;49.156;7.810;2023-07-20T07:25:41;99044.06;;;23.41;46.28
75594;BME280;64176;49.156;7.810;2023-07-20T07:28:28;99051.13;;;22.11;47.55
75594;BME280;64176;49.156;7.810;2023-07-20T07:31:12;99059.75;;;21.94;48.03
75594;BME280;64176;49.156;7.810;2023-07-20T07:34:03;99045.91;;;22.48;47.02
75594;BME280;64176;49.156;7.810;2023-07-20T07:36:50;99048.00;;;22.22;47.42
75594;BME280;64176;49.156;7.810;2023-07-20T07:39:34;99055.66;;;21.47;49.34
75594;BME280;64176;49.156;7.810;2023-07-20T07:42:19;99062.41;;;21.32;50.24
75594;BME280;64176;49.156;7.810;2023-07-20T07:45:03;99053.09;;;21.01;51.03
75594;BME280;64176;49.156;7.810;2023-07-20T07:47:50;99054.66;;;21.29;50.50
75594;BME280;64176;49.156;7.810;2023-07-20T07:50:36;99054.22;;;21.18;49.92
75594;BME280;64176;49.156;7.810;2023-07-20T07:53:21;99060.44;;;21.37;50.29
75594;BME280;64176;49.156;7.810;2023-07-20T07:56:07;99064.66;;;21.41;50.14
75594;BME280;64176;49.156;7.810;2023-07-20T07:58:52;99052.78;;;22.13;48.46
75594;BME280;64176;49.156;7.810;2023-07-20T08:01:38;99066.78;;;21.53;49.08
75594;BME280;64176;49.156;7.810;2023-07-20T08:04:22;99068.22;;;21.60;48.27
75594;BME280;64176;49.156;7.810;2023-07-20T08:07:12;99055.06;;;21.40;48.79
75594;BME280;64176;49.156;7.810;2023-07-20T08:09:58;99059.41;;;21.41;48.66
75594;BME280;64176;49.156;7.810;2023-07-20T08:12:44;99063.97;;;21.14;49.66
75594;BME280;64176;49.156;7.810;2023-07-20T08:15:28;99071.53;;;21.23;49.49
75594;BME280;64176;49.156;7.810;2023-07-20T08:18:13;99074.00;;;21.48;48.87
75594;BME280;64176;49.156;7.810;2023-07-20T08:20:59;99067.19;;;21.64;48.41
75594;BME280;64176;49.156;7.810;2023-07-20T08:23:46;99074.69;;;21.94;48.65
75594;BME280;64176;49.156;7.810;2023-07-20T08:26:32;99063.28;;;21.93;48.38
75594;BME280;64176;49.156;7.810;2023-07-20T08:29:19;99054.00;;;22.44;46.45
75594;BME280;64176;49.156;7.810;2023-07-20T08:32:04;99061.31;;;21.78;47.26
75594;BME280;64176;49.156;7.810;2023-07-20T08:34:49;99059.09;;;21.69;47.66
75594;BME280;64176;49.156;7.810;2023-07-20T08:37:35;99060.59;;;21.54;47.96
75594;BME280;64176;49.156;7.810;2023-07-20T08:40:20;99060.91;;;21.67;47.64
75594;BME280;64176;49.156;7.810;2023-07-20T08:43:04;99049.97;;;23.29;44.87
75594;BME280;64176;49.156;7.810;2023-07-20T08:45:52;99041.28;;;23.96;42.18
75594;BME280;64176;49.156;7.810;2023-07-20T08:48:37;99041.66;;;23.19;43.83
75594;BME280;64176;49.156;7.810;2023-07-20T08:51:24;99035.41;;;23.20;44.42
75594;BME280;64176;49.156;7.810;2023-07-20T08:54:13;99047.47;;;22.71;43.44
75594;BME280;64176;49.156;7.810;2023-07-20T08:57:04;99042.78;;;22.40;44.14
75594;BME280;64176;49.156;7.810;2023-07-20T08:59:52;99038.44;;;23.13;43.59
75594;BME280;64176;49.156;7.810;2023-07-20T09:02:39;99047.63;;;22.49;44.37
75594;BME280;64176;49.156;7.810;2023-07-20T09:05:28;99040.22;;;22.39;43.05
75594;BME280;64176;49.156;7.810;2023-07-20T09:08:15;99045.72;;;21.94;44.77
75594;BME280;64176;49.156;7.810;2023-07-20T09:10:59;99045.91;;;21.89;44.52
75594;BME280;64176;49.156;7.810;2023-07-20T09:13:43;99047.91;;;21.22;46.08
75594;BME280;64176;49.156;7.810;2023-07-20T09:16:27;99038.84;;;21.71;45.01
75594;BME280;64176;49.156;7.810;2023-07-20T09:19:14;99048.91;;;21.82;44.75
75594;BME280;64176;49.156;7.810;2023-07-20T09:22:01;99041.19;;;21.77;45.04
75594;BME280;64176;49.156;7.810;2023-07-20T09:24:45;99034.94;;;22.20;44.14
75594;BME280;64176;49.156;7.810;2023-07-20T09:27:36;99035.78;;;22.58;42.27
75594;BME280;64176;49.156;7.810;2023-07-20T09:30:25;99015.59;;;22.01;44.05
75594;BME280;64176;49.156;7.810;2023-07-20T09:33:18;99046.94;;;22.07;43.51
75594;BME280;64176;49.156;7.810;2023-07-20T09:36:05;99046.47;;;22.36;43.47
75594;BME280;64176;49.156;7.810;2023-07-20T09:38:52;99038.63;;;22.53;42.33
75594;BME280;64176;49.156;7.810;2023-07-20T09:41:42;99036.59;;;21.82;42.61
75594;BME280;64176;49.156;7.810;2023-07-20T09:44:27;99028.16;;;22.33;42.94
75594;BME280;64176;49.156;7.810;2023-07-20T09:47:12;99034.50;;;22.67;42.00
75594;BME280;64176;49.156;7.810;2023-07-20T09:49:59;99045.34;;;21.83;43.10
75594;BME280;64176;49.156;7.810;2023-07-20T09:52:49;99039.81;;;21.89;42.89
75594;BME280;64176;49.156;7.810;2023-07-20T09:55:38;99027.31;;;22.33;41.02
75594;BME280;64176;49.156;7.810;2023-07-20T09:58:26;99018.66;;;22.49;40.28
75594;BME280;64176;49.156;7.810;2023-07-20T10:01:15;99014.16;;;22.51;40.45
75594;BME280;64176;49.156;7.810;2023-07-20T10:04:03;99013.34;;;22.87;40.27
75594;BME280;64176;49.156;7.810;2023-07-20T10:06:49;99005.75;;;23.17;39.98
75594;BME280;64176;49.156;7.810;2023-07-20T10:09:39;99012.19;;;23.29;38.89
75594;BME280;64176;49.156;7.810;2023-07-20T10:12:25;98988.09;;;22.64;39.87
75594;BME280;64176;49.156;7.810;2023-07-20T10:15:20;99006.16;;;22.72;40.42
75594;BME280;64176;49.156;7.810;2023-07-20T10:18:14;99001.03;;;22.87;40.41
75594;BME280;64176;49.156;7.810;2023-07-20T10:21:01;99004.06;;;23.50;38.89
75594;BME280;64176;49.156;7.810;2023-07-20T10:23:51;98990.69;;;23.53;39.21
75594;BME280;64176;49.156;7.810;2023-07-20T10:26:34;99003.59;;;23.59;39.19
75594;BME280;64176;49.156;7.810;2023-07-20T10:29:22;99004.03;;;23.33;39.29
75594;BME280;64176;49.156;7.810;2023-07-20T10:32:08;98987.44;;;22.78;39.96
75594;BME280;64176;49.156;7.810;2023-07-20T10:34:56;99000.47;;;22.43;41.01
75594;BME280;64176;49.156;7.810;2023-07-20T10:37:53;98999.03;;;22.55;40.69
75594;BME280;64176;49.156;7.810;2023-07-20T10:40:40;99008.09;;;22.12;41.00
75594;BME280;64176;49.156;7.810;2023-07-20T10:43:24;98997.97;;;22.59;40.20
75594;BME280;64176;49.156;7.810;2023-07-20T10:46:11;98961.28;;;23.09;39.59
75594;BME280;64176;49.156;7.810;2023-07-20T10:49:00;98980.59;;;22.74;40.16
75594;BME280;64176;49.156;7.810;2023-07-20T10:51:57;98979.47;;;22.79;39.41
75594;BME280;64176;49.156;7.810;2023-07-20T10:54:47;98970.03;;;23.10;38.57
75594;BME280;64176;49.156;7.810;2023-07-20T10:57:32;98974.22;;;22.61;38.70
75594;BME280;64176;49.156;7.810;2023-07-20T11:00:19;98972.50;;;22.78;37.29
75594;BME280;64176;49.156;7.810;2023-07-20T11:03:07;98967.72;;;23.38;37.85
75594;BME280;64176;49.156;7.810;2023-07-20T11:05:51;98960.44;;;23.26;38.11
75594;BME280;64176;49.156;7.810;2023-07-20T11:08:41;98952.84;;;23.54;36.27
75594;BME280;64176;49.156;7.810;2023-07-20T11:11:30;98967.44;;;23.27;36.73
75594;BME280;64176;49.156;7.810;2023-07-20T11:17:16;98967.50;;;23.26;36.14
75594;BME280;64176;49.156;7.810;2023-07-20T11:20:04;98959.19;;;23.33;37.44
75594;BME280;64176;49.156;7.810;2023-07-20T11:22:51;98960.88;;;23.86;36.38
75594;BME280;64176;49.156;7.810;2023-07-20T11:25:41;98949.47;;;24.01;34.28
75594;BME280;64176;49.156;7.810;2023-07-20T11:28:30;98937.19;;;24.00;34.80
75594;BME280;64176;49.156;7.810;2023-07-20T11:31:19;98935.91;;;23.91;33.70
75594;BME280;64176;49.156;7.810;2023-07-20T11:34:05;98940.66;;;24.34;33.26
75594;BME280;64176;49.156;7.810;2023-07-20T11:36:51;98946.19;;;24.45;31.30
75594;BME280;64176;49.156;7.810;2023-07-20T11:39:37;98923.66;;;23.90;30.41
75594;BME280;64176;49.156;7.810;2023-07-20T11:42:22;98935.56;;;24.46;31.91
75594;BME280;64176;49.156;7.810;2023-07-20T11:45:09;98939.53;;;24.53;32.53
75594;BME280;64176;49.156;7.810;2023-07-20T11:47:58;98928.44;;;24.15;34.19
75594;BME280;64176;49.156;7.810;2023-07-20T11:50:42;98934.75;;;24.76;33.74
75594;BME280;64176;49.156;7.810;2023-07-20T11:53:29;98928.41;;;24.48;33.23
75594;BME280;64176;49.156;7.810;2023-07-20T11:56:13;98916.84;;;24.65;34.02
75594;BME280;64176;49.156;7.810;2023-07-20T11:59:00;98903.97;;;23.80;35.00
75594;BME280;64176;49.156;7.810;2023-07-20T12:01:45;98907.59;;;23.62;35.76
75594;BME280;64176;49.156;7.810;2023-07-20T12:04:33;98896.97;;;23.64;35.55
75594;BME280;64176;49.156;7.810;2023-07-20T12:07:21;98904.00;;;23.96;35.49
75594;BME280;64176;49.156;7.810;2023-07-20T12:10:11;98902.06;;;24.31;34.09
75594;BME280;64176;49.156;7.810;2023-07-20T12:13:02;98906.16;;;24.37;32.60
75594;BME280;64176;49.156;7.810;2023-07-20T12:15:52;98913.56;;;24.61;31.95
75594;BME280;64176;49.156;7.810;2023-07-20T12:18:38;98899.81;;;24.71;32.04
75594;BME280;64176;49.156;7.810;2023-07-20T12:21:22;98907.38;;;24.92;31.77
75594;BME280;64176;49.156;7.810;2023-07-20T12:24:07;98904.00;;;24.89;31.81
75594;BME280;64176;49.156;7.810;2023-07-20T12:26:56;98896.00;;;24.60;32.39
75594;BME280;64176;49.156;7.810;2023-07-20T12:29:42;98901.84;;;24.65;33.07
75594;BME280;64176;49.156;7.810;2023-07-20T12:32:29;98886.09;;;24.01;34.65
75594;BME280;64176;49.156;7.810;2023-07-20T12:35:14;98905.31;;;24.36;34.80
75594;BME280;64176;49.156;7.810;2023-07-20T12:38:01;98903.72;;;24.01;34.65
75594;BME280;64176;49.156;7.810;2023-07-20T12:40:45;98903.13;;;24.11;34.53
75594;BME280;64176;49.156;7.810;2023-07-20T12:43:32;98892.25;;;24.17;34.58
75594;BME280;64176;49.156;7.810;2023-07-20T12:46:19;98885.59;;;24.10;35.03
75594;BME280;64176;49.156;7.810;2023-07-20T12:49:03;98874.94;;;24.89;33.12
75594;BME280;64176;49.156;7.810;2023-07-20T12:51:47;98888.06;;;24.45;32.05
75594;BME280;64176;49.156;7.810;2023-07-20T12:54:34;98882.47;;;24.81;31.92
75594;BME280;64176;49.156;7.810;2023-07-20T12:57:20;98871.97;;;24.95;31.96
75594;BME280;64176;49.156;7.810;2023-07-20T13:00:09;98883.88;;;24.86;32.62
75594;BME280;64176;49.156;7.810;2023-07-20T13:02:58;98877.94;;;24.83;33.23
75594;BME280;64176;49.156;7.810;2023-07-20T13:05:45;98866.38;;;24.70;32.08
75594;BME280;64176;49.156;7.810;2023-07-20T13:08:29;98879.22;;;24.46;32.16
75594;BME280;64176;49.156;7.810;2023-07-20T13:11:15;98868.97;;;24.55;32.24
75594;BME280;64176;49.156;7.810;2023-07-20T13:14:00;98869.34;;;25.09;33.07
75594;BME280;64176;49.156;7.810;2023-07-20T13:16:44;98849.16;;;25.36;30.59
75594;BME280;64176;49.156;7.810;2023-07-20T13:19:30;98840.75;;;25.44;30.62
75594;BME280;64176;49.156;7.810;2023-07-20T13:22:17;98845.09;;;25.59;30.57
75594;BME280;64176;49.156;7.810;2023-07-20T13:25:00;98850.47;;;25.86;30.74
75594;BME280;64176;49.156;7.810;2023-07-20T13:27:45;98850.69;;;25.41;30.52
75594;BME280;64176;49.156;7.810;2023-07-20T13:30:29;98843.13;;;25.34;30.62
75594;BME280;64176;49.156;7.810;2023-07-20T13:33:15;98836.59;;;25.54;30.60
75594;BME280;64176;49.156;7.810;2023-07-20T13:35:59;98847.44;;;25.07;30.21
75594;BME280;64176;49.156;7.810;2023-07-20T13:38:43;98838.28;;;25.27;30.68
75594;BME280;64176;49.156;7.810;2023-07-20T13:41:27;98842.81;;;24.51;31.30
75594;BME280;64176;49.156;7.810;2023-07-20T13:44:15;98846.84;;;24.72;30.71
75594;BME280;64176;49.156;7.810;2023-07-20T13:47:02;98838.72;;;24.61;31.40
75594;BME280;64176;49.156;7.810;2023-07-20T13:49:46;98845.31;;;24.68;31.02
75594;BME280;64176;49.156;7.810;2023-07-20T13:52:30;98837.44;;;25.12;30.76
75594;BME280;64176;49.156;7.810;2023-07-20T13:55:14;98829.53;;;25.41;31.98
75594;BME280;64176;49.156;7.810;2023-07-20T13:57:59;98826.38;;;25.06;30.95
75594;BME280;64176;49.156;7.810;2023-07-20T14:00:43;98827.22;;;25.20;31.27
75594;BME280;64176;49.156;7.810;2023-07-20T14:03:27;98827.16;;;25.50;30.38
75594;BME280;64176;49.156;7.810;2023-07-20T14:06:13;98822.59;;;25.10;31.22
75594;BME280;64176;49.156;7.810;2023-07-20T14:08:57;98816.94;;;25.16;31.37
75594;BME280;64176;49.156;7.810;2023-07-20T14:11:41;98818.09;;;25.40;31.06
75594;BME280;64176;49.156;7.810;2023-07-20T14:14:25;98813.81;;;25.23;31.15
75594;BME280;64176;49.156;7.810;2023-07-20T14:17:12;98828.00;;;25.36;30.37
75594;BME280;64176;49.156;7.810;2023-07-20T14:19:59;98817.31;;;25.24;31.07
75594;BME280;64176;49.156;7.810;2023-07-20T14:22:45;98824.00;;;24.71;31.93
75594;BME280;64176;49.156;7.810;2023-07-20T14:25:31;98823.06;;;24.72;32.50
75594;BME280;64176;49.156;7.810;2023-07-20T14:28:20;98821.78;;;24.34;32.59
75594;BME280;64176;49.156;7.810;2023-07-20T14:31:07;98819.97;;;24.50;32.36
75594;BME280;64176;49.156;7.810;2023-07-20T14:33:53;98806.72;;;24.36;33.08
75594;BME280;64176;49.156;7.810;2023-07-20T14:36:37;98813.13;;;24.16;33.32
75594;BME280;64176;49.156;7.810;2023-07-20T14:39:21;98814.75;;;24.18;33.19
75594;BME280;64176;49.156;7.810;2023-07-20T14:42:05;98817.47;;;24.17;33.19
75594;BME280;64176;49.156;7.810;2023-07-20T14:44:52;98811.75;;;24.24;33.95
75594;BME280;64176;49.156;7.810;2023-07-20T14:47:36;98815.19;;;23.95;34.20
75594;BME280;64176;49.156;7.810;2023-07-20T14:50:21;98814.22;;;24.12;33.13